createdAt,value
2018-08-06T00:00:24.209Z,18.75
2018-08-06T00:02:52.915Z,18.70
2018-08-06T00:05:21.588Z,19.92
2018-08-06T00:07:50.340Z,18.52
2018-08-06T00:10:20.595Z,18.92
2018-08-06T00:12:49.208Z,18.27
2018-08-06T00:15:17.907Z,18.81
2018-08-06T00:17:46.696Z,19.17
2018-08-06T00:20:16.112Z,17.64
2018-08-06T00:22:45.028Z,18.32
2018-08-06T00:25:15.104Z,18.31
2018-08-06T00:27:44.638Z,18.47
2018-08-06T00:30:15.020Z,18.17
2018-08-06T00:32:44.451Z,20.15
2018-08-06T00:35:13.792Z,20.20
2018-08-06T00:37:42.611Z,20.68
2018-08-06T00:40:14.230Z,21.14
2018-08-06T00:42:43.680Z,19.45
2018-08-06T00:45:15.411Z,18.33
2018-08-06T00:47:44.571Z,17.61
2018-08-06T00:50:13.453Z,18.32
2018-08-06T00:52:42.209Z,18.34
2018-08-06T00:55:14.456Z,18.12
2018-08-06T00:57:43.378Z,19.66
2018-08-06T01:00:14.263Z,19.70
2018-08-06T01:02:43.469Z,17.41
2018-08-06T01:05:13.578Z,17.71
2018-08-06T01:07:43.236Z,18.42
2018-08-06T01:10:13.801Z,18.27
2018-08-06T01:12:42.436Z,18.42
2018-08-06T01:15:13.369Z,18.10
2018-08-06T01:17:42.307Z,19.08
2018-08-06T01:20:12.603Z,18.33
2018-08-06T01:22:42.155Z,18.66
2018-08-06T01:25:11.474Z,18.12
2018-08-06T01:27:40.112Z,18.86
2018-08-06T01:30:10.828Z,19.16
2018-08-06T01:32:39.417Z,19.08
2018-08-06T01:35:09.652Z,18.08
2018-08-06T01:37:38.440Z,18.53
2018-08-06T01:40:09.101Z,20.66
2018-08-06T01:42:37.902Z,18.92
2018-08-06T01:45:07.261Z,18.82
2018-08-06T01:47:36.472Z,17.68
2018-08-06T01:50:05.967Z,20.24
2018-08-06T01:52:34.690Z,18.96
2018-08-06T01:55:03.421Z,17.61
2018-08-06T01:57:32.312Z,17.73
2018-08-06T02:00:01.040Z,17.43
2018-08-06T02:02:29.787Z,17.38
2018-08-06T02:04:58.524Z,19.59
2018-08-06T02:07:27.256Z,17.54
2018-08-06T02:09:56.076Z,17.63
2018-08-06T02:12:24.843Z,17.62
2018-08-06T02:14:53.594Z,17.38
2018-08-06T02:17:22.361Z,17.44
2018-08-06T02:19:51.380Z,19.59
2018-08-06T02:22:20.830Z,18.01
2018-08-06T02:24:49.479Z,17.19
2018-08-06T02:27:18.359Z,20.03
2018-08-06T02:29:47.071Z,16.83
2018-08-06T02:32:15.974Z,17.28
2018-08-06T02:34:44.745Z,17.99
2018-08-06T02:37:13.601Z,18.26
2018-08-06T02:39:42.229Z,18.49
2018-08-06T02:42:11.223Z,17.12
2018-08-06T02:44:39.912Z,18.56
2018-08-06T02:47:08.737Z,18.17
2018-08-06T02:49:37.807Z,18.82
2018-08-06T02:52:07.100Z,17.10
2018-08-06T02:54:35.679Z,18.67
2018-08-06T02:57:04.421Z,17.33
2018-08-06T02:59:33.197Z,17.95
2018-08-06T03:02:02.090Z,17.91
2018-08-06T03:04:31.216Z,17.78
2018-08-06T03:07:03.112Z,18.09
2018-08-06T03:09:31.764Z,18.60
2018-08-06T03:12:00.541Z,17.21
2018-08-06T03:14:29.284Z,17.36
2018-08-06T03:16:57.971Z,18.72
2018-08-06T03:19:26.635Z,17.75
2018-08-06T03:21:55.253Z,17.71
2018-08-06T03:24:24.055Z,18.04
2018-08-06T03:26:52.880Z,16.90
2018-08-06T03:29:21.590Z,17.68
2018-08-06T03:31:50.415Z,18.01
2018-08-06T03:34:19.516Z,17.02
2018-08-06T03:36:48.131Z,19.82
2018-08-06T03:39:16.770Z,19.26
2018-08-06T03:41:45.581Z,19.44
2018-08-06T03:44:14.296Z,17.25
2018-08-06T03:46:42.980Z,17.15
2018-08-06T03:49:11.626Z,16.92
2018-08-06T03:51:40.688Z,17.48
2018-08-06T03:54:09.357Z,18.09
2018-08-06T03:56:38.200Z,16.87
2018-08-06T03:59:06.787Z,19.06
2018-08-06T04:04:31.296Z,21.05
2018-08-06T04:07:00.967Z,16.73
2018-08-06T04:09:29.681Z,16.88
2018-08-06T04:11:58.791Z,17.17
2018-08-06T04:14:27.794Z,17.14
2018-08-06T04:16:56.776Z,18.39
2018-08-06T04:19:25.801Z,17.54
2018-08-06T04:21:54.744Z,18.05
2018-08-06T04:24:23.773Z,17.81
2018-08-06T04:26:52.651Z,21.22
2018-08-06T04:29:21.405Z,19.80
2018-08-06T04:31:50.060Z,19.37
2018-08-06T04:34:18.954Z,18.41
2018-08-06T04:36:47.827Z,17.56
2018-08-06T04:39:16.478Z,17.06
2018-08-06T04:41:45.797Z,18.73
2018-08-06T04:44:14.454Z,18.04
2018-08-06T04:46:43.270Z,20.39
2018-08-06T04:49:12.040Z,20.40
2018-08-06T04:51:40.929Z,20.10
2018-08-06T04:54:09.806Z,18.98
2018-08-06T04:56:38.915Z,20.04
2018-08-06T04:59:07.637Z,21.23
2018-08-06T05:01:36.500Z,20.31
2018-08-06T05:04:05.570Z,22.42
2018-08-06T05:06:34.186Z,19.97
2018-08-06T05:09:03.174Z,19.89
2018-08-06T05:11:32.259Z,21.38
2018-08-06T05:14:01.131Z,22.07
2018-08-06T05:16:29.966Z,22.47
2018-08-06T05:18:58.790Z,21.18
2018-08-06T05:21:27.952Z,22.63
2018-08-06T05:23:59.370Z,22.44
2018-08-06T05:26:30.106Z,22.89
2018-08-06T05:28:58.991Z,21.34
2018-08-06T05:31:28.770Z,22.53
2018-08-06T05:33:58.700Z,22.00
2018-08-06T05:36:28.048Z,22.91
2018-08-06T05:38:57.064Z,22.67
2018-08-06T05:41:27.529Z,21.76
2018-08-06T05:43:58.137Z,22.96
2018-08-06T05:46:27.115Z,22.86
2018-08-06T05:48:56.263Z,22.99
2018-08-06T05:51:25.091Z,22.42
2018-08-06T05:53:53.720Z,22.98
2018-08-06T05:56:22.877Z,22.20
2018-08-06T05:58:51.687Z,22.27
2018-08-06T06:01:20.344Z,22.17
2018-08-06T06:03:49.085Z,21.48
2018-08-06T06:06:19.110Z,22.82
2018-08-06T06:08:48.044Z,22.19
2018-08-06T06:11:16.806Z,22.35
2018-08-06T06:13:45.442Z,22.08
2018-08-06T06:16:14.210Z,22.31
2018-08-06T06:18:43.140Z,22.30
2018-08-06T06:21:11.979Z,21.51
2018-08-06T06:23:40.640Z,22.08
2018-08-06T06:26:09.639Z,22.74
2018-08-06T06:28:38.470Z,22.40
2018-08-06T06:31:07.410Z,21.91
2018-08-06T06:33:36.292Z,21.47
2018-08-06T06:36:05.086Z,22.77
2018-08-06T06:38:34.108Z,21.32
2018-08-06T06:41:03.168Z,22.69
2018-08-06T06:43:32.079Z,23.06
2018-08-06T06:46:01.158Z,22.17
2018-08-06T06:48:30.457Z,22.45
2018-08-06T06:50:59.371Z,22.79
2018-08-06T06:53:28.203Z,22.17
2018-08-06T06:55:57.068Z,22.82
2018-08-06T06:58:26.040Z,22.97
2018-08-06T07:00:54.841Z,22.77
2018-08-06T07:03:23.842Z,22.11
2018-08-06T07:05:53.070Z,22.15
2018-08-06T07:08:21.839Z,22.37
2018-08-06T07:10:50.651Z,22.65
2018-08-06T07:13:19.505Z,22.00
2018-08-06T07:15:48.219Z,22.49
2018-08-06T07:18:17.156Z,22.31
2018-08-06T07:20:46.446Z,22.30
2018-08-06T07:23:15.275Z,22.77
2018-08-06T07:25:44.188Z,22.17
2018-08-06T07:28:13.136Z,22.35
2018-08-06T07:30:42.008Z,23.02
2018-08-06T07:33:10.733Z,22.38
2018-08-06T07:35:39.607Z,22.54
2018-08-06T07:38:08.680Z,22.72
2018-08-06T07:40:37.786Z,22.49
2018-08-06T07:43:06.673Z,22.91
2018-08-06T07:45:35.515Z,23.10
2018-08-06T07:48:04.467Z,23.38
2018-08-06T07:50:33.134Z,23.48
2018-08-06T07:53:02.241Z,23.55
2018-08-06T07:55:31.069Z,23.97
2018-08-06T07:58:00.017Z,23.23
2018-08-06T08:00:28.898Z,22.92
2018-08-06T08:02:57.899Z,22.85
2018-08-06T08:05:26.825Z,23.43
2018-08-06T08:07:55.690Z,22.64
2018-08-06T08:10:24.885Z,22.97
2018-08-06T08:12:53.747Z,23.42
2018-08-06T08:15:25.383Z,22.61
2018-08-06T08:17:54.938Z,23.58
2018-08-06T08:20:23.729Z,22.26
2018-08-06T08:22:52.554Z,22.85
2018-08-06T08:25:22.406Z,23.43
2018-08-06T08:27:51.200Z,23.25
2018-08-06T08:30:20.583Z,23.91
2018-08-06T08:32:49.600Z,22.81
2018-08-06T08:35:18.910Z,22.66
2018-08-06T08:37:47.943Z,23.40
2018-08-06T08:40:19.827Z,23.17
2018-08-06T08:42:48.656Z,23.30
2018-08-06T08:45:18.565Z,23.27
2018-08-06T08:47:47.383Z,23.22
2018-08-06T08:50:17.928Z,23.14
2018-08-06T08:52:46.867Z,23.41
2018-08-06T08:55:17.309Z,23.66
2018-08-06T08:57:46.241Z,23.87
2018-08-06T09:00:19.824Z,23.93
2018-08-06T09:02:49.529Z,23.71
2018-08-06T09:05:18.727Z,23.88
2018-08-06T09:07:47.978Z,23.80
2018-08-06T09:10:17.566Z,24.35
2018-08-06T09:12:46.871Z,23.99
2018-08-06T09:15:19.211Z,23.86
2018-08-06T09:17:48.075Z,24.14
2018-08-06T09:20:17.435Z,23.48
2018-08-06T09:22:46.820Z,24.09
2018-08-06T09:25:16.026Z,24.00
2018-08-06T09:27:46.139Z,23.58
2018-08-06T09:30:17.195Z,24.11
2018-08-06T09:32:47.444Z,23.55
2018-08-06T09:35:17.111Z,23.72
2018-08-06T09:37:46.163Z,24.52
2018-08-06T09:40:16.349Z,24.29
2018-08-06T09:42:45.821Z,24.51
2018-08-06T09:45:15.974Z,24.07
2018-08-06T09:47:45.864Z,24.07
2018-08-06T09:50:15.594Z,24.27
2018-08-06T09:52:45.164Z,24.35
2018-08-06T09:55:15.420Z,24.44
2018-08-06T09:57:44.455Z,24.23
2018-08-06T10:00:21.627Z,24.29
2018-08-06T10:02:51.292Z,24.43
2018-08-06T10:05:21.330Z,24.71
2018-08-06T10:07:50.143Z,24.48
2018-08-06T10:10:19.045Z,24.81
2018-08-06T10:12:48.056Z,24.45
2018-08-06T10:15:17.702Z,24.91
2018-08-06T10:17:48.177Z,24.72
2018-08-06T10:20:19.055Z,25.29
2018-08-06T10:22:48.616Z,25.53
2018-08-06T10:25:17.706Z,25.51
2018-08-06T10:27:47.209Z,25.56
2018-08-06T10:30:22.993Z,25.48
2018-08-06T10:32:51.693Z,25.53
2018-08-06T10:35:21.063Z,25.35
2018-08-06T10:37:49.946Z,26.04
2018-08-06T10:40:22.042Z,26.55
2018-08-06T10:42:50.969Z,27.29
2018-08-06T10:45:21.999Z,27.29
2018-08-06T10:47:51.274Z,27.22
2018-08-06T10:50:20.432Z,27.37
2018-08-06T10:52:49.338Z,27.70
2018-08-06T10:55:18.099Z,28.42
2018-08-06T10:57:47.268Z,28.63
2018-08-06T11:00:18.701Z,29.01
2018-08-06T11:02:48.270Z,28.55
2018-08-06T11:05:18.115Z,29.15
2018-08-06T11:07:47.683Z,29.15
2018-08-06T11:10:19.598Z,28.95
2018-08-06T11:12:48.427Z,29.04
2018-08-06T11:15:19.087Z,29.87
2018-08-06T11:17:48.114Z,29.63
2018-08-06T11:20:17.956Z,30.08
2018-08-06T11:22:47.266Z,29.93
2018-08-06T11:25:17.776Z,30.40
2018-08-06T11:27:46.747Z,31.63
2018-08-06T11:30:17.751Z,30.03
2018-08-06T11:32:47.379Z,31.23
2018-08-06T11:35:16.801Z,31.18
2018-08-06T11:37:45.592Z,31.27
2018-08-06T11:40:16.027Z,30.84
2018-08-06T11:42:45.507Z,29.91
2018-08-06T11:45:16.138Z,31.42
2018-08-06T11:47:45.200Z,31.84
2018-08-06T11:50:14.199Z,31.26
2018-08-06T11:52:44.191Z,31.95
2018-08-06T11:55:13.122Z,32.16
2018-08-06T11:57:42.134Z,31.88
2018-08-06T12:00:15.057Z,32.05
2018-08-06T12:02:43.815Z,31.62
2018-08-06T12:05:12.873Z,32.45
2018-08-06T12:07:41.595Z,31.91
2018-08-06T12:10:12.776Z,33.23
2018-08-06T12:12:42.329Z,33.01
2018-08-06T12:15:12.549Z,32.04
2018-08-06T12:17:42.267Z,32.55
2018-08-06T12:20:14.237Z,32.07
2018-08-06T12:22:44.031Z,31.40
2018-08-06T12:25:14.138Z,33.43
2018-08-06T12:27:43.325Z,32.82
2018-08-06T12:30:14.488Z,33.60
2018-08-06T12:32:44.029Z,34.13
2018-08-06T12:35:12.919Z,33.32
2018-08-06T12:37:41.760Z,33.03
2018-08-06T12:40:25.936Z,31.33
2018-08-06T12:42:54.807Z,32.30
2018-08-06T12:45:23.795Z,35.05
2018-08-06T12:47:52.891Z,33.12
2018-08-06T12:50:21.718Z,33.53
2018-08-06T12:52:50.576Z,34.30
2018-08-06T12:55:20.011Z,34.00
2018-08-06T12:57:49.001Z,34.41
2018-08-06T13:00:23.347Z,34.81
2018-08-06T13:02:52.976Z,34.77
2018-08-06T13:05:22.548Z,33.41
2018-08-06T13:07:51.380Z,34.21
2018-08-06T13:10:20.250Z,33.84
2018-08-06T13:12:49.096Z,34.32
2018-08-06T13:15:18.227Z,34.63
2018-08-06T13:17:47.130Z,35.89
2018-08-06T13:20:16.027Z,34.10
2018-08-06T13:22:45.139Z,34.08
2018-08-06T13:25:14.232Z,34.60
2018-08-06T13:27:43.057Z,34.26
2018-08-06T13:30:14.012Z,35.15
2018-08-06T13:32:43.833Z,34.81
2018-08-06T13:35:13.535Z,35.28
2018-08-06T13:37:42.183Z,35.58
2018-08-06T13:40:11.948Z,36.31
2018-08-06T13:42:40.760Z,36.08
2018-08-06T13:45:11.734Z,36.37
2018-08-06T13:47:40.484Z,36.07
2018-08-06T13:50:09.961Z,37.45
2018-08-06T13:52:39.392Z,37.01
2018-08-06T13:55:09.667Z,36.84
2018-08-06T13:57:38.673Z,37.41
2018-08-06T14:00:14.884Z,37.72
2018-08-06T14:02:44.535Z,39.12
2018-08-06T14:05:14.841Z,37.86
2018-08-06T14:07:44.885Z,40.31
2018-08-06T14:10:13.715Z,36.92
2018-08-06T14:12:42.353Z,37.23
2018-08-06T14:15:12.404Z,37.42
2018-08-06T14:17:41.823Z,39.13
2018-08-06T14:20:13.441Z,39.30
2018-08-06T14:22:43.095Z,39.90
2018-08-06T14:25:12.550Z,37.25
2018-08-06T14:27:41.480Z,38.47
2018-08-06T14:30:13.376Z,37.79
2018-08-06T14:32:42.791Z,38.05
2018-08-06T14:35:11.971Z,37.47
2018-08-06T14:37:40.863Z,39.14
2018-08-06T14:40:12.579Z,38.27
2018-08-06T14:42:41.259Z,39.30
2018-08-06T14:45:10.942Z,38.08
2018-08-06T14:47:39.655Z,38.41
2018-08-06T14:50:10.184Z,37.84
2018-08-06T14:52:39.123Z,37.53
2018-08-06T14:55:08.137Z,36.98
2018-08-06T14:57:37.592Z,38.57
2018-08-06T15:00:16.761Z,36.59
2018-08-06T15:02:45.513Z,38.95
2018-08-06T15:05:14.304Z,37.85
2018-08-06T15:07:43.065Z,36.87
2018-08-06T15:10:13.322Z,36.68
2018-08-06T15:12:42.113Z,37.35
2018-08-06T15:15:16.424Z,36.19
2018-08-06T15:17:45.968Z,36.80
2018-08-06T15:20:16.046Z,37.04
2018-08-06T15:22:45.155Z,36.42
2018-08-06T15:25:16.641Z,36.57
2018-08-06T15:27:45.362Z,35.57
2018-08-06T15:30:15.501Z,31.73
2018-08-06T15:32:45.207Z,31.98
2018-08-06T15:35:14.853Z,31.56
2018-08-06T15:37:47.896Z,30.30
2018-08-06T15:40:18.964Z,29.88
2018-08-06T15:42:47.909Z,30.26
2018-08-06T15:45:17.024Z,30.67
2018-08-06T15:47:46.587Z,30.09
2018-08-06T15:50:17.939Z,29.44
2018-08-06T15:52:46.762Z,32.20
2018-08-06T15:55:17.881Z,30.86
2018-08-06T15:57:47.283Z,29.85
2018-08-06T16:00:23.249Z,30.22
2018-08-06T16:02:52.083Z,31.99
2018-08-06T16:05:20.779Z,33.41
2018-08-06T16:07:49.698Z,32.18
2018-08-06T16:10:19.055Z,31.97
2018-08-06T16:12:47.854Z,30.98
2018-08-06T16:15:17.288Z,31.42
2018-08-06T16:17:46.492Z,30.25
2018-08-06T16:20:17.873Z,30.57
2018-08-06T16:22:47.155Z,30.87
2018-08-06T16:25:16.688Z,30.25
2018-08-06T16:27:46.610Z,30.01
2018-08-06T16:30:16.968Z,29.26
2018-08-06T16:32:47.002Z,28.79
2018-08-06T16:35:16.987Z,29.20
2018-08-06T16:37:45.888Z,29.30
2018-08-06T16:40:16.383Z,29.18
2018-08-06T16:42:45.263Z,29.13
2018-08-06T16:45:14.157Z,28.96
2018-08-06T16:47:43.271Z,28.77
2018-08-06T16:50:14.916Z,28.69
2018-08-06T16:52:43.985Z,28.38
2018-08-06T16:55:13.003Z,28.44
2018-08-06T16:57:42.003Z,28.15
2018-08-06T17:00:14.415Z,27.82
2018-08-06T17:02:43.192Z,28.16
2018-08-06T17:05:13.268Z,28.20
2018-08-06T17:07:43.222Z,28.02
2018-08-06T17:10:14.191Z,27.68
2018-08-06T17:12:44.685Z,28.07
2018-08-06T17:15:15.016Z,27.91
2018-08-06T17:17:43.899Z,27.81
2018-08-06T17:20:15.896Z,27.70
2018-08-06T17:22:46.370Z,27.89
2018-08-06T17:25:15.875Z,27.87
2018-08-06T17:27:44.907Z,27.84
2018-08-06T17:30:14.818Z,27.74
2018-08-06T17:32:43.763Z,27.56
2018-08-06T17:35:13.340Z,27.05
2018-08-06T17:37:43.418Z,26.98
2018-08-06T17:40:18.483Z,27.15
2018-08-06T17:42:47.538Z,26.90
2018-08-06T17:45:18.968Z,26.69
2018-08-06T17:47:47.750Z,26.83
2018-08-06T17:50:18.589Z,26.79
2018-08-06T17:52:48.966Z,26.61
2018-08-06T17:55:19.036Z,26.52
2018-08-06T17:57:48.025Z,26.36
2018-08-06T18:00:17.855Z,26.35
2018-08-06T18:02:46.786Z,26.34
2018-08-06T18:05:17.190Z,26.19
2018-08-06T18:07:46.371Z,26.09
2018-08-06T18:10:16.867Z,26.19
2018-08-06T18:12:46.244Z,26.10
2018-08-06T18:15:15.910Z,25.79
2018-08-06T18:17:45.490Z,25.71
2018-08-06T18:20:17.295Z,25.88
2018-08-06T18:22:46.319Z,25.71
2018-08-06T18:25:17.160Z,25.62
2018-08-06T18:27:46.979Z,25.20
2018-08-06T18:30:17.802Z,24.91
2018-08-06T18:32:46.550Z,25.01
2018-08-06T18:35:17.263Z,25.41
2018-08-06T18:37:45.965Z,25.16
2018-08-06T18:40:15.735Z,25.44
2018-08-06T18:42:44.977Z,24.98
2018-08-06T18:45:15.899Z,24.87
2018-08-06T18:47:45.803Z,25.09
2018-08-06T18:50:15.617Z,25.12
2018-08-06T18:52:45.557Z,24.73
2018-08-06T18:55:15.214Z,24.31
2018-08-06T18:57:44.683Z,24.23
2018-08-06T19:00:19.059Z,24.33
2018-08-06T19:02:48.232Z,24.36
2018-08-06T19:05:19.254Z,23.99
2018-08-06T19:07:50.890Z,24.34
2018-08-06T19:10:22.198Z,24.68
2018-08-06T19:12:56.616Z,23.94
2018-08-06T19:15:26.667Z,23.68
2018-08-06T19:18:04.751Z,24.10
2018-08-06T19:20:34.733Z,24.32
2018-08-06T19:23:03.882Z,24.14
2018-08-06T19:25:33.797Z,23.68
2018-08-06T19:28:02.879Z,23.98
2018-08-06T19:30:37.052Z,23.91
2018-08-06T19:33:06.212Z,23.80
2018-08-06T19:35:35.089Z,24.40
2018-08-06T19:38:03.821Z,24.47
2018-08-06T19:40:32.613Z,24.29
2018-08-06T19:43:08.403Z,23.86
2018-08-06T19:45:38.422Z,23.69
2018-08-06T19:48:07.419Z,23.33
2018-08-06T19:50:39.691Z,23.71
2018-08-06T19:53:09.820Z,23.89
2018-08-06T19:55:43.963Z,23.83
2018-08-06T19:58:12.875Z,22.75
2018-08-06T20:00:41.845Z,23.05
2018-08-06T20:03:10.918Z,22.41
2018-08-06T20:05:39.735Z,23.31
2018-08-06T20:08:08.692Z,22.61
2018-08-06T20:10:37.956Z,23.56
2018-08-06T20:13:07.544Z,23.21
2018-08-06T20:15:36.594Z,22.70
2018-08-06T20:18:05.883Z,22.27
2018-08-06T20:20:34.711Z,21.58
2018-08-06T20:23:03.663Z,22.29
2018-08-06T20:25:32.532Z,22.27
2018-08-06T20:28:01.449Z,22.29
2018-08-06T20:30:30.555Z,21.98
2018-08-06T20:33:01.481Z,22.67
2018-08-06T20:35:31.766Z,22.04
2018-08-06T20:38:01.532Z,22.47
2018-08-06T20:40:30.623Z,22.65
2018-08-06T20:42:59.718Z,22.49
2018-08-06T20:45:28.804Z,22.64
2018-08-06T20:47:57.601Z,22.40
2018-08-06T20:50:26.587Z,22.11
2018-08-06T20:52:55.747Z,21.95
2018-08-06T20:55:24.764Z,22.54
2018-08-06T20:57:54.165Z,22.39
2018-08-06T21:00:24.543Z,21.46
2018-08-06T21:02:54.144Z,21.66
2018-08-06T21:05:23.421Z,22.35
2018-08-06T21:07:52.419Z,21.80
2018-08-06T21:10:21.818Z,21.25
2018-08-06T21:12:51.169Z,22.07
2018-08-06T21:15:19.970Z,22.17
2018-08-06T21:17:49.005Z,21.62
2018-08-06T21:20:19.211Z,21.86
2018-08-06T21:22:49.183Z,20.78
2018-08-06T21:25:17.912Z,20.72
2018-08-06T21:27:47.871Z,21.95
2018-08-06T21:30:18.871Z,21.55
2018-08-06T21:32:57.387Z,21.68
2018-08-06T21:35:27.354Z,21.87
2018-08-06T21:37:56.804Z,21.56
2018-08-06T21:40:28.372Z,21.27
2018-08-06T21:42:57.184Z,21.88
2018-08-06T21:45:26.343Z,22.32
2018-08-06T21:47:55.060Z,21.56
2018-08-06T21:50:24.129Z,21.98
2018-08-06T21:52:53.019Z,22.71
2018-08-06T21:55:21.843Z,21.80
2018-08-06T21:57:51.220Z,21.48
2018-08-06T22:00:39.819Z,21.86
2018-08-06T22:03:18.128Z,21.54
2018-08-06T22:05:47.428Z,20.97
2018-08-06T22:08:16.468Z,21.72
2018-08-06T22:10:45.109Z,21.70
2018-08-06T22:13:14.076Z,21.92
2018-08-06T22:15:42.875Z,21.48
2018-08-06T22:18:13.088Z,21.33
2018-08-06T22:20:42.206Z,21.24
2018-08-06T22:23:10.847Z,22.41
2018-08-06T22:25:39.927Z,22.14
2018-08-06T22:28:10.951Z,22.15
2018-08-06T22:30:39.759Z,21.06
2018-08-06T22:33:09.044Z,22.07
2018-08-06T22:35:38.975Z,21.28
2018-08-06T22:38:08.535Z,20.59
2018-08-06T22:40:37.476Z,20.85
2018-08-06T22:43:06.318Z,22.02
2018-08-06T22:45:35.354Z,23.04
2018-08-06T22:48:04.443Z,22.08
2018-08-06T22:50:33.303Z,22.55
2018-08-06T22:53:02.266Z,23.13
2018-08-06T22:55:41.049Z,22.50
2018-08-06T22:58:09.721Z,22.02
2018-08-06T23:00:38.462Z,22.40
2018-08-06T23:03:09.026Z,23.23
2018-08-06T23:05:37.763Z,22.37
2018-08-06T23:08:06.583Z,22.46
2018-08-06T23:10:35.427Z,21.92
2018-08-06T23:13:04.226Z,22.46
2018-08-06T23:15:33.013Z,23.13
2018-08-06T23:18:01.680Z,22.52
2018-08-06T23:20:30.503Z,23.04
2018-08-06T23:22:59.354Z,23.43
2018-08-06T23:25:28.272Z,23.20
2018-08-06T23:27:56.995Z,22.88
2018-08-06T23:30:26.040Z,22.19
2018-08-06T23:32:54.927Z,22.83
2018-08-06T23:35:23.747Z,23.39
2018-08-06T23:37:52.367Z,23.36
2018-08-06T23:40:21.399Z,23.55
2018-08-06T23:42:50.301Z,22.75
2018-08-06T23:45:19.084Z,23.08
2018-08-06T23:47:47.717Z,23.35
2018-08-06T23:50:16.565Z,22.85
2018-08-06T23:52:46.502Z,22.85
2018-08-06T23:55:17.922Z,22.85
2018-08-06T23:57:47.128Z,23.06
